createdAt,value
2019-02-22T00:03:57.299Z,-13.35
2019-02-22T00:08:00.130Z,-13.34
2019-02-22T00:12:03.149Z,-13.53
2019-02-22T00:16:05.864Z,-13.45
2019-02-22T00:20:09.026Z,-13.54
2019-02-22T00:24:11.664Z,-13.71
2019-02-22T00:28:14.472Z,-13.62
2019-02-22T00:32:17.042Z,-13.66
2019-02-22T00:36:21.150Z,-13.79
2019-02-22T00:40:24.981Z,-13.76
2019-02-22T00:44:28.767Z,-13.79
2019-02-22T00:48:31.277Z,-13.67
2019-02-22T00:52:34.107Z,-13.68
2019-02-22T00:56:36.822Z,-13.68
2019-02-22T01:00:39.548Z,-13.74
2019-02-22T01:04:42.139Z,-13.98
2019-02-22T01:08:44.897Z,-13.92
2019-02-22T01:12:47.871Z,-14.05
2019-02-22T01:16:51.609Z,-14.08
2019-02-22T01:20:54.844Z,-14.20
2019-02-22T01:24:57.922Z,-14.13
2019-02-22T01:29:00.713Z,-14.03
2019-02-22T01:33:03.384Z,-13.88
2019-02-22T01:37:06.194Z,-13.66
2019-02-22T01:41:08.964Z,-13.89
2019-02-22T01:45:11.690Z,-13.90
2019-02-22T01:49:14.357Z,-13.75
2019-02-22T01:53:16.979Z,-13.73
2019-02-22T01:57:19.627Z,-14.00
2019-02-22T02:01:22.187Z,-13.97
2019-02-22T02:05:24.853Z,-14.01
2019-02-22T02:09:27.435Z,-14.00
2019-02-22T02:13:30.152Z,-14.16
2019-02-22T02:17:32.827Z,-14.33
2019-02-22T02:21:35.609Z,-14.36
2019-02-22T02:25:38.302Z,-14.28
2019-02-22T02:29:41.174Z,-14.00
2019-02-22T02:33:43.908Z,-13.78
2019-02-22T02:37:48.358Z,-14.02
2019-02-22T02:41:50.926Z,-13.67
2019-02-22T02:45:53.736Z,-13.67
2019-02-22T02:49:56.384Z,-13.63
2019-02-22T02:53:59.059Z,-13.61
2019-02-22T02:58:01.690Z,-13.88
2019-02-22T03:02:08.678Z,-13.75
2019-02-22T03:06:32.982Z,-13.93
2019-02-22T03:10:35.654Z,-13.87
2019-02-22T03:14:38.161Z,-13.80
2019-02-22T03:18:40.839Z,-13.96
2019-02-22T03:22:43.545Z,-14.01
2019-02-22T03:26:46.223Z,-14.04
2019-02-22T03:30:48.894Z,-14.10
2019-02-22T03:34:51.496Z,-14.21
2019-02-22T03:38:56.044Z,-14.17
2019-02-22T03:42:58.770Z,-14.21
2019-02-22T03:47:01.427Z,-14.32
2019-02-22T03:51:04.191Z,-14.38
2019-02-22T03:55:07.258Z,-14.39
2019-02-22T03:59:10.127Z,-14.55
2019-02-22T04:03:12.890Z,-14.54
2019-02-22T04:07:15.545Z,-14.62
2019-02-22T04:11:19.130Z,-14.90
2019-02-22T04:15:21.889Z,-15.09
2019-02-22T04:19:24.491Z,-15.09
2019-02-22T04:23:27.292Z,-15.19
2019-02-22T04:27:29.999Z,-15.24
2019-02-22T04:31:33.856Z,-15.28
2019-02-22T04:35:37.917Z,-15.39
2019-02-22T04:39:41.171Z,-15.38
2019-02-22T04:43:43.968Z,-15.44
2019-02-22T04:47:46.642Z,-15.44
2019-02-22T04:51:49.376Z,-15.50
2019-02-22T04:55:52.150Z,-15.51
2019-02-22T04:59:54.846Z,-15.56
2019-02-22T05:03:57.505Z,-15.61
2019-02-22T05:08:00.241Z,-15.36
2019-02-22T05:12:10.930Z,-15.43
2019-02-22T05:16:09.420Z,-15.66
2019-02-22T05:20:12.197Z,-15.72
2019-02-22T05:24:14.721Z,-15.76
2019-02-22T05:28:18.886Z,-15.82
2019-02-22T05:32:21.601Z,-15.91
2019-02-22T05:36:24.511Z,-16.03
2019-02-22T05:40:27.463Z,-16.02
2019-02-22T05:44:32.821Z,-16.02
2019-02-22T05:48:38.784Z,-16.04
2019-02-22T05:52:41.824Z,-15.93
2019-02-22T05:56:44.413Z,-15.97
2019-02-22T06:00:48.498Z,-15.96
2019-02-22T06:04:51.040Z,-15.92
2019-02-22T06:08:53.813Z,-15.82
2019-02-22T06:12:57.329Z,-15.75
2019-02-22T06:17:00.198Z,-15.82
2019-02-22T06:21:04.124Z,-15.70
2019-02-22T06:25:09.723Z,-15.57
2019-02-22T06:29:12.513Z,-15.35
2019-02-22T06:33:15.156Z,-15.21
2019-02-22T06:37:18.721Z,-15.06
2019-02-22T06:41:21.782Z,-14.87
2019-02-22T06:45:24.341Z,-14.70
2019-02-22T06:49:26.981Z,-14.35
2019-02-22T06:53:29.789Z,-14.00
2019-02-22T06:57:32.477Z,-13.82
2019-02-22T07:01:35.178Z,-13.82
2019-02-22T07:05:38.037Z,-13.67
2019-02-22T07:09:40.786Z,-13.61
2019-02-22T07:13:43.443Z,-13.52
2019-02-22T07:17:46.150Z,-13.23
2019-02-22T07:21:52.465Z,-13.09
2019-02-22T07:25:53.092Z,-12.90
2019-02-22T07:29:55.825Z,-12.86
2019-02-22T07:33:58.247Z,-12.79
2019-02-22T07:38:01.037Z,-12.62
2019-02-22T07:42:03.695Z,-12.52
2019-02-22T07:46:07.913Z,-12.43
2019-02-22T07:50:12.093Z,-12.31
2019-02-22T07:54:14.872Z,-12.09
2019-02-22T07:58:17.529Z,-11.98
2019-02-22T08:02:20.239Z,-11.86
2019-02-22T08:06:22.849Z,-11.75
2019-02-22T08:10:26.370Z,-11.71
2019-02-22T08:14:29.117Z,-11.54
2019-02-22T08:18:31.796Z,-11.38
2019-02-22T08:22:34.560Z,-11.25
2019-02-22T08:26:37.426Z,-11.18
2019-02-22T08:30:40.206Z,-10.99
2019-02-22T08:34:45.732Z,-10.78
2019-02-22T08:38:47.441Z,-10.59
2019-02-22T08:42:50.010Z,-10.45
2019-02-22T08:46:52.612Z,-10.33
2019-02-22T08:50:55.302Z,-10.30
2019-02-22T08:54:58.144Z,-10.13
2019-02-22T08:59:00.946Z,-9.99
2019-02-22T09:03:03.571Z,-9.86
2019-02-22T09:07:06.367Z,-9.53
2019-02-22T09:11:09.047Z,-9.41
2019-02-22T09:15:11.906Z,-9.41
2019-02-22T09:19:14.585Z,-9.16
2019-02-22T09:23:17.358Z,-9.07
2019-02-22T09:27:20.209Z,-8.95
2019-02-22T09:31:23.003Z,-8.79
2019-02-22T09:35:25.833Z,-8.63
2019-02-22T09:39:28.603Z,-8.46
2019-02-22T09:43:31.471Z,-8.30
2019-02-22T09:47:36.007Z,-8.17
2019-02-22T09:51:41.164Z,-7.98
2019-02-22T09:55:42.846Z,-7.85
2019-02-22T09:59:45.351Z,-7.73
2019-02-22T10:03:49.227Z,-7.78
2019-02-22T10:07:51.931Z,-7.81
2019-02-22T10:11:54.763Z,-7.67
2019-02-22T10:15:57.418Z,-7.51
2019-02-22T10:20:01.603Z,-7.41
2019-02-22T10:24:05.351Z,-7.41
2019-02-22T10:28:17.175Z,-7.31
2019-02-22T10:32:12.367Z,-7.00
2019-02-22T10:36:15.072Z,-6.83
2019-02-22T10:40:19.571Z,-6.79
2019-02-22T10:44:22.273Z,-6.67
2019-02-22T10:48:24.807Z,-6.77
2019-02-22T10:52:27.791Z,-6.75
2019-02-22T10:56:30.532Z,-6.35
2019-02-22T11:00:33.246Z,-5.95
2019-02-22T11:04:35.960Z,-5.83
2019-02-22T11:08:38.746Z,-5.76
2019-02-22T11:12:41.485Z,-5.82
2019-02-22T11:16:44.150Z,-5.72
2019-02-22T11:20:46.760Z,-5.82
2019-02-22T11:24:49.486Z,-5.67
2019-02-22T11:28:54.664Z,-5.38
2019-02-22T11:32:56.889Z,-5.14
2019-02-22T11:36:59.547Z,-5.03
2019-02-22T11:41:02.201Z,-4.96
2019-02-22T11:45:05.075Z,-4.96
2019-02-22T11:49:17.508Z,-4.87
2019-02-22T11:53:25.071Z,-4.86
2019-02-22T11:57:27.626Z,-4.85
2019-02-22T12:01:30.154Z,-4.81
2019-02-22T12:05:32.571Z,-4.84
2019-02-22T12:09:35.413Z,-4.48
2019-02-22T12:13:38.009Z,-4.25
2019-02-22T12:17:40.365Z,-4.37
2019-02-22T12:21:42.807Z,-4.39
2019-02-22T12:25:45.176Z,-4.39
2019-02-22T12:29:49.012Z,-4.52
2019-02-22T12:33:51.431Z,-4.55
2019-02-22T12:37:57.114Z,-4.41
2019-02-22T12:41:59.621Z,-4.16
2019-02-22T12:46:02.310Z,-4.08
2019-02-22T12:50:04.875Z,-4.03
2019-02-22T12:54:09.846Z,-3.99
2019-02-22T12:58:12.395Z,-3.99
2019-02-22T13:02:14.834Z,-3.97
2019-02-22T13:06:17.186Z,-4.00
2019-02-22T13:10:19.596Z,-4.05
2019-02-22T13:14:22.081Z,-4.01
2019-02-22T13:18:24.501Z,-3.99
2019-02-22T13:22:27.121Z,-3.88
2019-02-22T13:26:30.787Z,-3.88
2019-02-22T13:30:33.246Z,-3.83
2019-02-22T13:34:35.645Z,-3.95
2019-02-22T13:38:39.590Z,-3.95
2019-02-22T13:42:42.195Z,-4.04
2019-02-22T13:46:44.603Z,-4.02
2019-02-22T13:50:47.200Z,-4.06
2019-02-22T13:54:49.805Z,-4.14
2019-02-22T13:58:52.288Z,-4.32
2019-02-22T14:02:56.058Z,-4.49
2019-02-22T14:06:58.493Z,-4.51
2019-02-22T14:11:00.934Z,-4.47
2019-02-22T14:15:03.372Z,-4.46
2019-02-22T14:19:05.948Z,-4.47
2019-02-22T14:23:08.602Z,-4.56
2019-02-22T14:27:11.240Z,-4.59
2019-02-22T14:31:13.683Z,-4.71
2019-02-22T14:35:16.377Z,-4.78
2019-02-22T14:39:19.070Z,-4.76
2019-02-22T14:43:21.661Z,-4.78
2019-02-22T14:47:24.362Z,-4.78
2019-02-22T14:51:27.044Z,-4.86
2019-02-22T14:55:29.766Z,-5.01
2019-02-22T14:59:32.514Z,-5.08
2019-02-22T15:03:36.032Z,-5.16
2019-02-22T15:07:40.274Z,-5.20
2019-02-22T15:11:43.207Z,-5.36
2019-02-22T15:16:10.832Z,-5.53
2019-02-22T15:20:13.512Z,-5.68
2019-02-22T15:24:18.282Z,-5.76
2019-02-22T15:28:21.063Z,-5.93
2019-02-22T15:32:23.786Z,-6.03
2019-02-22T15:36:26.825Z,-6.24
2019-02-22T15:40:29.494Z,-6.39
2019-02-22T15:44:32.591Z,-6.67
2019-02-22T15:48:35.347Z,-6.78
2019-02-22T15:52:38.139Z,-6.93
2019-02-22T15:56:40.803Z,-7.03
2019-02-22T16:00:43.411Z,-7.20
2019-02-22T16:05:04.753Z,-7.34
2019-02-22T16:09:09.435Z,-7.53
2019-02-22T16:13:13.511Z,-7.65
2019-02-22T16:17:16.266Z,-7.61
2019-02-22T16:21:18.802Z,-7.73
2019-02-22T16:25:21.507Z,-7.90
2019-02-22T16:29:24.292Z,-8.11
2019-02-22T16:33:27.062Z,-8.18
2019-02-22T16:37:29.657Z,-8.07
2019-02-22T16:41:32.403Z,-7.95
2019-02-22T16:45:35.117Z,-8.06
2019-02-22T16:49:37.875Z,-8.02
2019-02-22T16:53:40.598Z,-7.98
2019-02-22T16:57:43.213Z,-8.11
2019-02-22T17:01:45.703Z,-8.27
2019-02-22T17:05:48.385Z,-7.97
2019-02-22T17:09:51.199Z,-7.99
2019-02-22T17:13:53.922Z,-7.80
2019-02-22T17:17:56.633Z,-7.55
2019-02-22T17:21:59.411Z,-7.51
2019-02-22T17:26:02.140Z,-7.26
2019-02-22T17:30:04.831Z,-6.91
2019-02-22T17:34:07.430Z,-6.78
2019-02-22T17:38:10.129Z,-6.91
2019-02-22T17:42:12.649Z,-6.91
2019-02-22T17:46:15.284Z,-7.01
2019-02-22T17:50:18.120Z,-7.06
2019-02-22T17:54:20.893Z,-7.13
2019-02-22T17:58:24.627Z,-7.07
2019-02-22T18:02:29.878Z,-7.03
2019-02-22T18:06:32.564Z,-7.15
2019-02-22T18:10:37.060Z,-7.14
2019-02-22T18:14:39.734Z,-6.96
2019-02-22T18:18:42.469Z,-6.91
2019-02-22T18:22:45.053Z,-6.93
2019-02-22T18:26:47.744Z,-6.93
2019-02-22T18:30:50.239Z,-6.83
2019-02-22T18:34:52.914Z,-6.92
2019-02-22T18:38:55.634Z,-7.06
2019-02-22T18:42:58.910Z,-7.19
2019-02-22T18:47:01.403Z,-7.28
2019-02-22T18:51:04.173Z,-7.21
2019-02-22T18:55:06.916Z,-7.24
2019-02-22T18:59:09.619Z,-7.25
2019-02-22T19:03:12.288Z,-7.25
2019-02-22T19:07:15.254Z,-7.41
2019-02-22T19:11:19.890Z,-7.54
2019-02-22T19:15:22.681Z,-7.39
2019-02-22T19:19:25.300Z,-7.53
2019-02-22T19:23:28.075Z,-7.46
2019-02-22T19:27:30.778Z,-7.45
2019-02-22T19:31:34.577Z,-7.52
2019-02-22T19:35:37.287Z,-7.62
2019-02-22T19:39:40.271Z,-7.68
2019-02-22T19:43:42.988Z,-7.68
2019-02-22T19:47:45.802Z,-7.65
2019-02-22T19:51:48.663Z,-7.44
2019-02-22T19:55:51.445Z,-7.42
2019-02-22T19:59:54.092Z,-7.35
2019-02-22T20:03:56.923Z,-7.21
2019-02-22T20:07:59.842Z,-7.20
2019-02-22T20:12:02.782Z,-7.04
2019-02-22T20:16:06.974Z,-6.95
2019-02-22T20:20:12.502Z,-6.81
2019-02-22T20:24:15.272Z,-6.70
2019-02-22T20:28:18.049Z,-6.55
2019-02-22T20:32:20.830Z,-6.28
2019-02-22T20:36:28.578Z,-6.20
2019-02-22T20:40:28.217Z,-6.21
2019-02-22T20:44:31.018Z,-6.16
2019-02-22T20:48:34.706Z,-6.03
2019-02-22T20:52:37.494Z,-6.05
2019-02-22T20:56:40.014Z,-6.06
2019-02-22T21:00:42.799Z,-6.05
2019-02-22T21:04:45.723Z,-6.08
2019-02-22T21:08:48.367Z,-6.01
2019-02-22T21:12:51.241Z,-5.83
2019-02-22T21:16:53.925Z,-5.71
2019-02-22T21:20:56.745Z,-5.65
2019-02-22T21:24:59.512Z,-5.48
2019-02-22T21:29:02.055Z,-5.35
2019-02-22T21:33:04.837Z,-5.13
2019-02-22T21:37:08.563Z,-4.92
2019-02-22T21:41:11.262Z,-4.88
2019-02-22T21:45:14.035Z,-4.70
2019-02-22T21:49:16.759Z,-4.62
2019-02-22T21:53:19.325Z,-4.44
2019-02-22T21:57:22.099Z,-4.42
2019-02-22T22:01:24.614Z,-4.39
2019-02-22T22:05:27.294Z,-4.34
2019-02-22T22:09:31.322Z,-4.29
2019-02-22T22:13:34.811Z,-4.21
2019-02-22T22:17:37.410Z,-4.14
2019-02-22T22:21:40.116Z,-4.00
2019-02-22T22:25:42.825Z,-3.86
2019-02-22T22:29:45.668Z,-3.89
2019-02-22T22:33:48.190Z,-3.82
2019-02-22T22:37:50.908Z,-3.81
2019-02-22T22:41:53.638Z,-3.75
2019-02-22T22:45:56.401Z,-3.66
2019-02-22T22:49:59.106Z,-3.56
2019-02-22T22:54:01.885Z,-3.48
2019-02-22T22:58:04.450Z,-3.45
2019-02-22T23:02:07.254Z,-3.39
2019-02-22T23:06:11.793Z,-3.42
2019-02-22T23:10:14.706Z,-3.33
2019-02-22T23:14:17.848Z,-3.27
2019-02-22T23:18:20.800Z,-3.10
2019-02-22T23:22:23.845Z,-2.93
2019-02-22T23:26:26.429Z,-2.82
2019-02-22T23:30:29.030Z,-2.70
2019-02-22T23:34:31.682Z,-2.73
2019-02-22T23:38:34.327Z,-2.63
2019-02-22T23:42:37.177Z,-2.61
2019-02-22T23:46:39.695Z,-2.63
2019-02-22T23:50:42.500Z,-2.66
2019-02-22T23:54:45.128Z,-2.61
2019-02-22T23:58:47.948Z,-2.61
